Time;durP1;ratioP1;P1;durP2;ratioP2;P2;SDS_P1;SDS_P2;PMS_P1;PMS_P2;Temp;Humidity;BMP_temperature;BMP_pressure;BME280_temperature;BME280_humidity;BME280_pressure;Samples;Min_cycle;Max_cycle;Signal;HPM_P1;HPM_P2
2023/06/12 00:02:13;;;;;;;4.53;4.17;;;;;;;21.68;nan;99111.59;5024363;28;20279;-80
2023/06/12 00:04:39;;;;;;;6.05;5.50;;;;;;;21.71;nan;99105.91;5023257;28;21012;-80
2023/06/12 00:07:04;;;;;;;4.97;4.57;;;;;;;21.67;nan;99106.44;5024079;28;20218;-80
2023/06/12 00:09:30;;;;;;;4.80;4.40;;;;;;;21.62;nan;99113.13;5024259;28;20698;-80
2023/06/12 00:11:55;;;;;;;4.90;4.50;;;;;;;21.62;nan;99113.13;5023764;28;20483;-80
2023/06/12 00:14:21;;;;;;;6.73;4.80;;;;;;;21.64;nan;99103.09;5022930;28;20205;-80
2023/06/12 00:16:48;;;;;;;4.50;3.97;;;;;;;21.60;nan;99104.50;5024470;28;20226;-80
2023/06/12 00:19:13;;;;;;;4.67;4.37;;;;;;;21.53;nan;99108.06;5024667;28;20249;-80
2023/06/12 00:21:39;;;;;;;4.70;4.00;;;;;;;21.46;nan;99112.47;5024416;28;20463;-80
2023/06/12 00:24:08;;;;;;;5.10;4.20;;;;;;;21.39;nan;99120.38;5024592;28;20310;-80
2023/06/12 00:26:35;;;;;;;5.43;4.87;;;;;;;21.25;nan;99119.25;5022976;28;20445;-80
2023/06/12 00:29:00;;;;;;;5.30;4.30;;;;;;;21.06;nan;99114.38;5023888;28;20542;-80
2023/06/12 00:31:26;;;;;;;4.93;4.50;;;;;;;20.98;nan;99116.13;5022795;28;20506;-80
2023/06/12 00:33:51;;;;;;;6.60;4.87;;;;;;;20.94;nan;99124.66;5005669;28;20216;-80
2023/06/12 00:36:17;;;;;;;6.50;5.27;;;;;;;20.87;nan;99121.00;5024707;28;20212;-80
2023/06/12 00:38:42;;;;;;;7.63;4.30;;;;;;;20.81;nan;99117.22;5022559;28;20744;-80
2023/06/12 00:41:08;;;;;;;4.33;4.00;;;;;;;20.77;nan;99111.41;5022627;28;20235;-80
2023/06/12 00:43:33;;;;;;;4.83;4.43;;;;;;;20.75;nan;99115.25;5006399;28;20624;-80
2023/06/12 00:46:00;;;;;;;5.17;4.20;;;;;;;20.72;nan;99111.09;5021950;28;20214;-80
2023/06/12 00:48:26;;;;;;;4.80;4.33;;;;;;;20.69;nan;99107.94;5024089;28;20465;-80
2023/06/12 00:50:52;;;;;;;5.70;5.10;;;;;;;20.69;nan;99116.78;5023903;28;20515;-80
2023/06/12 00:53:18;;;;;;;5.47;4.60;;;;;;;20.67;nan;99107.28;5023772;28;20211;-80
2023/06/12 00:55:44;;;;;;;5.50;4.60;;;;;;;20.61;nan;99105.31;5025419;28;20863;-80
2023/06/12 00:58:10;;;;;;;4.70;4.17;;;;;;;20.55;nan;99107.69;5008576;28;20445;-80
2023/06/12 01:00:39;;;;;;;5.30;4.80;;;;;;;20.53;nan;99107.00;5023489;28;20223;-80
2023/06/12 01:03:10;;;;;;;4.90;3.97;;;;;;;20.47;nan;99105.00;5022772;28;20219;-80
2023/06/12 01:05:40;;;;;;;5.10;4.60;;;;;;;20.38;nan;99100.69;5021749;28;20495;-80
2023/06/12 01:08:49;;;;;;;6.10;5.50;;;;;;;20.22;nan;99108.75;5005508;28;20219;-81
2023/06/12 01:11:17;;;;;;;6.30;4.90;;;;;;;20.15;nan;99102.47;5024064;28;21091;-80
2023/06/12 01:13:42;;;;;;;4.77;4.30;;;;;;;20.11;nan;99101.97;5004697;28;20901;-80
2023/06/12 01:16:08;;;;;;;5.13;4.33;;;;;;;20.07;nan;99101.47;5023605;28;20653;-80
2023/06/12 01:18:33;;;;;;;5.43;4.10;;;;;;;20.05;nan;99102.66;5023519;28;20210;-80
2023/06/12 01:21:07;;;;;;;5.07;4.50;;;;;;;20.04;nan;99101.00;5004917;28;20251;-80
2023/06/12 01:23:32;;;;;;;5.17;4.03;;;;;;;20.02;nan;99098.50;5005784;28;20568;-80
2023/06/12 01:26:10;;;;;;;4.63;3.80;;;;;;;19.97;nan;99106.16;5009889;28;20919;-80
2023/06/12 01:28:51;;;;;;;4.37;3.90;;;;;;;19.86;nan;99099.34;5020278;28;20471;-80
2023/06/12 01:31:43;;;;;;;6.00;4.93;;;;;;;19.82;nan;99110.53;5022857;28;20452;-80
2023/06/12 01:34:20;;;;;;;5.30;4.07;;;;;;;19.78;nan;99102.03;5022780;28;20514;-80
2023/06/12 01:36:57;;;;;;;5.97;5.10;;;;;;;19.72;nan;99107.22;5022479;28;20468;-81
2023/06/12 01:39:25;;;;;;;5.23;4.73;;;;;;;19.64;nan;99108.84;5023142;28;20488;-80
2023/06/12 01:41:51;;;;;;;5.83;5.20;;;;;;;19.56;nan;99108.88;5022444;28;20478;-80
2023/06/12 01:44:20;;;;;;;5.50;4.90;;;;;;;19.49;nan;99107.84;5022941;28;20425;-81
2023/06/12 01:46:46;;;;;;;4.50;4.10;;;;;;;19.36;nan;99112.84;5020941;28;20517;-80
2023/06/12 01:49:11;;;;;;;8.73;6.20;;;;;;;19.32;nan;99108.88;5021789;28;20494;-81
2023/06/12 01:51:37;;;;;;;5.83;5.23;;;;;;;19.33;nan;99111.34;5023375;28;20474;-81
2023/06/12 01:54:02;;;;;;;4.60;4.30;;;;;;;19.36;nan;99108.38;5022250;28;20211;-81
2023/06/12 01:56:28;;;;;;;5.50;5.00;;;;;;;19.37;nan;99110.03;5021776;28;20220;-81
2023/06/12 01:58:54;;;;;;;5.57;4.80;;;;;;;19.40;nan;99106.22;5022104;28;20213;-80
2023/06/12 02:01:30;;;;;;;4.97;4.53;;;;;;;19.38;nan;99105.53;5023402;28;20212;-80
2023/06/12 02:03:56;;;;;;;5.50;5.00;;;;;;;19.32;nan;99108.88;5018987;28;20490;-82
2023/06/12 02:06:21;;;;;;;5.28;4.78;;;;;;;19.31;nan;99109.84;5018660;28;20674;-80
2023/06/12 02:08:47;;;;;;;6.07;5.10;;;;;;;19.24;nan;99107.84;5022815;28;20325;-80
2023/06/12 02:11:13;;;;;;;5.33;4.80;;;;;;;19.18;nan;99105.88;5022482;28;20279;-80
2023/06/12 02:13:39;;;;;;;6.43;4.67;;;;;;;19.13;nan;99113.50;5021601;28;20425;-81
2023/06/12 02:16:07;;;;;;;5.77;4.97;;;;;;;19.12;nan;99111.84;5018924;28;20489;-81
2023/06/12 02:18:33;;;;;;;5.90;4.80;;;;;;;19.09;nan;99116.66;5023085;28;20705;-81
2023/06/12 02:20:59;;;;;;;5.00;4.60;;;;;;;19.05;nan;99116.16;5022447;28;21157;-81
2023/06/12 02:23:25;;;;;;;15.03;5.20;;;;;;;18.99;nan;99122.97;5022809;28;20461;-81
2023/06/12 02:25:51;;;;;;;6.90;4.47;;;;;;;18.88;nan;99114.47;5016460;28;20567;-81
2023/06/12 02:28:16;;;;;;;6.53;4.90;;;;;;;18.76;nan;99114.75;4982476;28;20214;-81
2023/06/12 02:30:41;;;;;;;5.03;4.50;;;;;;;18.69;nan;99123.53;4985449;28;20230;-80
2023/06/12 02:33:09;;;;;;;6.27;5.63;;;;;;;18.63;nan;99126.81;5003353;28;20232;-81
2023/06/12 02:35:39;;;;;;;5.20;4.70;;;;;;;18.55;nan;99122.31;5000369;28;20247;-80
2023/06/12 02:38:05;;;;;;;6.83;6.20;;;;;;;18.44;nan;99128.75;4984411;28;20429;-80
2023/06/12 02:40:30;;;;;;;4.17;3.87;;;;;;;18.40;nan;99126.59;4984419;28;20449;-80
2023/06/12 02:42:56;;;;;;;6.33;4.37;;;;;;;18.38;nan;99126.72;4985561;28;20218;-81
2023/06/12 02:45:23;;;;;;;5.57;5.13;;;;;;;18.40;nan;99121.25;4984831;28;20227;-81
2023/06/12 02:47:49;;;;;;;5.10;4.70;;;;;;;18.33;nan;99127.22;4984584;28;20245;-81
2023/06/12 02:50:15;;;;;;;5.33;4.83;;;;;;;18.20;nan;99137.47;4985112;28;20565;-79
2023/06/12 02:52:48;;;;;;;6.17;5.57;;;;;;;18.08;nan;99131.56;4983283;28;20218;-80
2023/06/12 02:55:14;;;;;;;4.70;4.20;;;;;;;18.06;nan;99132.69;4989986;28;20482;-81
2023/06/12 02:57:40;;;;;;;5.43;4.93;;;;;;;18.08;nan;99134.22;4988383;28;20454;-81
2023/06/12 03:00:06;;;;;;;5.20;4.67;;;;;;;18.13;nan;99131.09;4987370;28;20466;-80
2023/06/12 03:02:42;;;;;;;4.97;4.20;;;;;;;18.16;nan;99128.13;4987791;28;20467;-80
2023/06/12 03:05:12;;;;;;;5.30;4.80;;;;;;;18.19;nan;99138.44;4987558;28;20431;-81
2023/06/12 03:07:40;;;;;;;6.53;4.33;;;;;;;18.20;nan;99132.16;4989183;28;20214;-81
2023/06/12 03:10:07;;;;;;;5.43;4.53;;;;;;;18.24;nan;99138.78;4984092;28;20443;-81
2023/06/12 03:12:32;;;;;;;5.63;5.10;;;;;;;18.19;nan;99135.78;4983036;28;21167;-81
2023/06/12 03:14:59;;;;;;;7.77;4.63;;;;;;;18.07;nan;99143.19;4983198;28;20587;-81
2023/06/12 03:17:24;;;;;;;5.30;4.80;;;;;;;17.89;nan;99140.56;4983650;28;20566;-81
2023/06/12 03:19:50;;;;;;;5.70;4.80;;;;;;;17.68;nan;99145.38;4981045;28;20474;-81
2023/06/12 03:22:15;;;;;;;5.90;5.40;;;;;;;17.49;nan;99146.38;4982183;28;20647;-81
2023/06/12 03:24:41;;;;;;;5.33;4.80;;;;;;;17.35;nan;99153.06;4998684;28;20223;-80
2023/06/12 03:27:08;;;;;;;5.80;4.50;;;;;;;17.30;nan;99149.19;4969080;28;20316;-81
2023/06/12 03:29:34;;;;;;;4.87;4.47;;;;;;;17.29;nan;99148.38;4988601;28;20439;-81
2023/06/12 03:31:59;;;;;;;4.20;3.87;;;;;;;17.29;nan;99153.69;5004630;28;20575;-81
2023/06/12 03:34:33;;;;;;;5.87;4.77;;;;;;;17.30;nan;99150.03;5003519;28;20215;-81
2023/06/12 03:37:02;;;;;;;5.93;5.20;;;;;;;17.35;nan;99158.38;4987854;28;20474;-81
2023/06/12 03:39:29;;;;;;;6.70;5.63;;;;;;;17.37;nan;99153.75;4989075;28;20474;-80
2023/06/12 03:41:56;;;;;;;7.53;4.63;;;;;;;17.40;nan;99166.72;4989900;28;21220;-80
2023/06/12 03:44:25;;;;;;;7.43;5.50;;;;;;;17.43;nan;99166.41;4987647;28;20457;-80
2023/06/12 03:46:51;;;;;;;5.50;4.80;;;;;;;17.46;nan;99171.41;4988419;28;20933;-81
2023/06/12 03:49:17;;;;;;;5.20;4.43;;;;;;;17.52;nan;99175.28;4989352;28;20591;-80
2023/06/12 03:51:42;;;;;;;4.93;4.30;;;;;;;17.55;nan;99168.84;4988201;28;20592;-81
2023/06/12 03:54:10;;;;;;;6.50;4.80;;;;;;;17.56;nan;99175.84;4987570;28;20237;-80
2023/06/12 03:56:35;;;;;;;6.83;4.60;;;;;;;17.58;nan;99165.88;5005704;28;20248;-81
2023/06/12 03:59:01;;;;;;;7.27;6.63;;;;;;;17.57;nan;99170.34;4987279;28;20466;-81
2023/06/12 04:01:27;;;;;;;6.03;4.67;;;;;;;17.58;nan;99176.50;5006545;28;20251;-80
2023/06/12 04:03:53;;;;;;;7.20;5.90;;;;;;;17.57;nan;99174.84;5005588;28;21064;-80
2023/06/12 04:06:22;;;;;;;6.35;5.57;;;;;;;17.60;nan;99171.88;4987766;28;20871;-81
2023/06/12 04:08:48;;;;;;;5.10;4.30;;;;;;;17.61;nan;99189.50;5003486;28;20466;-81
2023/06/12 04:11:14;;;;;;;5.07;4.57;;;;;;;17.60;nan;99182.50;4989219;28;20466;-81
2023/06/12 04:13:42;;;;;;;5.83;4.20;;;;;;;17.55;nan;99184.75;4987877;28;20260;-81
2023/06/12 04:16:08;;;;;;;8.60;4.93;;;;;;;17.51;nan;99178.09;5002772;28;21050;-80
2023/06/12 04:18:33;;;;;;;5.77;4.90;;;;;;;17.49;nan;99183.56;5007068;28;20485;-80
2023/06/12 04:21:00;;;;;;;5.77;4.70;;;;;;;17.43;nan;99192.97;5006084;28;20222;-80
2023/06/12 04:23:29;;;;;;;5.87;5.07;;;;;;;17.36;nan;99191.94;5004800;28;20246;-81
2023/06/12 04:26:04;;;;;;;6.30;4.80;;;;;;;17.38;nan;99194.41;4987329;28;20514;-80
2023/06/12 04:28:31;;;;;;;6.50;4.47;;;;;;;17.45;nan;99187.53;5005141;28;20552;-79
2023/06/12 04:30:57;;;;;;;4.53;4.10;;;;;;;17.49;nan;99183.56;5004657;28;20469;-80
2023/06/12 04:33:23;;;;;;;5.37;4.87;;;;;;;17.59;nan;99186.16;4991741;28;20483;-81
2023/06/12 04:35:50;;;;;;;9.93;4.93;;;;;;;17.70;nan;99183.25;4990985;28;20495;-80
2023/06/12 04:38:16;;;;;;;6.30;5.17;;;;;;;17.75;nan;99183.63;5007841;28;20561;-80
2023/06/12 04:40:44;;;;;;;6.50;5.20;;;;;;;17.84;nan;99182.72;4985489;28;20477;-81
2023/06/12 04:43:10;;;;;;;6.60;5.63;;;;;;;17.92;nan;99185.44;4983354;28;20835;-81
2023/06/12 04:45:36;;;;;;;7.27;5.03;;;;;;;18.08;nan;99181.22;4985098;28;20481;-80
2023/06/12 04:48:02;;;;;;;5.50;5.00;;;;;;;18.42;nan;99180.44;4986300;28;20550;-82
2023/06/12 04:50:30;;;;;;;6.23;5.00;;;;;;;18.92;nan;99174.34;4986708;28;20534;-79
2023/06/12 04:52:55;;;;;;;5.70;5.10;;;;;;;19.51;nan;99174.31;4985627;28;20770;-81
2023/06/12 04:55:22;;;;;;;5.53;4.37;;;;;;;20.09;nan;99167.94;4985670;28;20760;-80
2023/06/12 04:57:52;;;;;;;7.83;4.70;;;;;;;20.56;nan;99177.88;4984281;28;20220;-81
2023/06/12 05:00:20;;;;;;;6.70;5.70;;;;;;;20.95;nan;99159.19;4986160;28;20465;-80
2023/06/12 05:02:46;;;;;;;6.10;4.73;;;;;;;21.28;nan;99158.13;4982147;28;20825;-80
2023/06/12 05:05:12;;;;;;;7.83;5.50;;;;;;;21.62;nan;99166.59;4979528;28;21094;-79
2023/06/12 05:07:37;;;;;;;7.20;4.50;;;;;;;21.88;nan;99163.53;4981088;28;20539;-81
2023/06/12 05:10:04;;;;;;;5.83;5.23;;;;;;;22.17;nan;99164.59;4978961;28;20469;-80
2023/06/12 05:12:30;;;;;;;7.53;5.13;;;;;;;22.45;nan;99158.66;4982648;28;20683;-79
2023/06/12 05:14:59;;;;;;;5.57;5.03;;;;;;;22.78;nan;99158.25;4980111;28;20481;-81
2023/06/12 05:17:27;;;;;;;5.43;4.97;;;;;;;23.12;nan;99158.47;4994450;28;20484;-79
2023/06/12 05:19:52;;;;;;;8.40;5.50;;;;;;;23.62;nan;99155.84;4981004;28;20435;-79
2023/06/12 05:22:18;;;;;;;4.20;3.80;;;;;;;24.04;nan;99152.31;4981996;28;20438;-80
2023/06/12 05:24:43;;;;;;;10.43;4.70;;;;;;;24.45;nan;99156.09;4981305;28;20428;-79
2023/06/12 05:27:10;;;;;;;6.57;5.30;;;;;;;24.90;nan;99159.19;5018130;28;20224;-80
2023/06/12 05:29:36;;;;;;;5.53;4.77;;;;;;;25.44;nan;99160.16;5000462;28;20219;-80
2023/06/12 05:32:02;;;;;;;6.37;5.37;;;;;;;25.88;nan;99165.00;5001974;28;20427;-80
2023/06/12 05:34:27;;;;;;;5.10;4.57;;;;;;;26.25;nan;99163.50;5003566;28;20440;-80
2023/06/12 05:36:54;;;;;;;7.53;4.90;;;;;;;26.50;nan;99173.59;5001287;28;20216;-80
2023/06/12 05:39:20;;;;;;;5.30;4.80;;;;;;;26.80;nan;99165.03;5003267;28;20217;-79
2023/06/12 05:41:47;;;;;;;6.20;5.60;;;;;;;26.96;nan;99161.84;5002949;28;20474;-80
2023/06/12 05:44:12;;;;;;;4.40;4.00;;;;;;;27.07;nan;99166.53;5004365;28;20455;-80
2023/06/12 05:46:38;;;;;;;6.67;4.80;;;;;;;27.33;nan;99152.13;5004927;28;20220;-80
2023/06/12 05:49:03;;;;;;;9.50;5.30;;;;;;;27.52;nan;99149.50;5024795;28;20308;-79
2023/06/12 05:51:30;;;;;;;5.37;4.77;;;;;;;27.65;nan;99159.34;5006284;28;20283;-79
2023/06/12 05:53:56;;;;;;;5.20;4.07;;;;;;;27.87;nan;99162.53;5006256;28;20459;-80
2023/06/12 05:56:23;;;;;;;5.25;4.75;;;;;;;28.20;nan;99148.72;5008612;28;20471;-80
2023/06/12 05:58:49;;;;;;;5.63;4.90;;;;;;;28.50;nan;99148.84;5006432;28;20298;-81
2023/06/12 06:01:21;;;;;;;5.50;5.00;;;;;;;28.86;nan;99147.97;5007848;28;20502;-80
2023/06/12 06:03:54;;;;;;;6.40;5.10;;;;;;;29.21;nan;99150.03;5009661;28;20265;-79
2023/06/12 06:06:19;;;;;;;5.60;5.10;;;;;;;29.78;nan;99152.28;4998905;28;20509;-79
2023/06/12 06:08:45;;;;;;;5.03;4.53;;;;;;;30.17;nan;99155.38;5020131;28;20212;-80
2023/06/12 06:11:11;;;;;;;4.83;4.43;;;;;;;30.51;nan;99153.72;5000334;28;20419;-81
2023/06/12 06:13:39;;;;;;;7.03;5.40;;;;;;;30.92;nan;99149.16;5002717;28;20484;-79
2023/06/12 06:16:04;;;;;;;5.20;4.57;;;;;;;31.33;nan;99147.19;5001449;28;20216;-81
2023/06/12 06:18:30;;;;;;;5.87;5.37;;;;;;;31.57;nan;99147.06;5000843;28;20457;-80
2023/06/12 06:20:56;;;;;;;6.10;4.60;;;;;;;31.43;nan;99149.28;5003016;28;20214;-80
2023/06/12 06:23:22;;;;;;;6.70;5.77;;;;;;;31.27;nan;99145.44;5001385;28;20887;-81
2023/06/12 06:25:48;;;;;;;5.70;4.53;;;;;;;31.37;nan;99148.38;5003173;28;20474;-79
2023/06/12 06:28:14;;;;;;;5.43;4.93;;;;;;;31.47;nan;99145.03;5019080;28;20269;-79
2023/06/12 06:30:40;;;;;;;5.57;5.10;;;;;;;31.47;nan;99145.03;5021594;28;20455;-81
2023/06/12 06:33:06;;;;;;;5.47;4.70;;;;;;;31.40;nan;99153.31;5020321;28;20460;-79
2023/06/12 06:35:31;;;;;;;5.20;4.80;;;;;;;31.51;nan;99143.44;5022523;28;20219;-79
2023/06/12 06:37:57;;;;;;;5.20;4.70;;;;;;;31.83;nan;99140.97;5020615;28;20267;-81
2023/06/12 06:40:25;;;;;;;5.40;4.90;;;;;;;32.13;nan;99147.97;5023800;28;20195;-79
2023/06/12 06:42:52;;;;;;;6.60;5.30;;;;;;;32.50;nan;99142.81;5020920;28;20797;-81
2023/06/12 06:45:21;;;;;;;7.50;6.27;;;;;;;32.87;nan;99141.34;5019226;28;20476;-80
2023/06/12 06:47:48;;;;;;;8.43;4.93;;;;;;;33.24;nan;99149.63;5022383;28;21172;-80
2023/06/12 06:50:14;;;;;;;5.07;4.57;;;;;;;33.45;nan;99147.94;5021813;28;20476;-80
2023/06/12 06:52:41;;;;;;;6.33;5.70;;;;;;;33.52;nan;99140.38;5037463;28;20214;-81
2023/06/12 06:55:07;;;;;;;4.73;4.27;;;;;;;33.46;nan;99141.44;5021998;28;21039;-80
2023/06/12 06:57:33;;;;;;;5.83;5.33;;;;;;;33.49;nan;99135.47;5021391;28;20977;-80
2023/06/12 07:00:03;;;;;;;5.27;4.77;;;;;;;33.60;nan;99136.41;5022042;28;20465;-79
2023/06/12 07:02:28;;;;;;;5.47;4.87;;;;;;;33.77;nan;99134.34;5022353;28;20453;-80
2023/06/12 07:04:54;;;;;;;5.77;4.77;;;;;;;33.92;nan;99144.53;5020722;28;20461;-78
2023/06/12 07:07:20;;;;;;;5.20;4.80;;;;;;;34.14;nan;99133.53;5021867;28;20276;-79
2023/06/12 07:09:46;;;;;;;5.40;4.90;;;;;;;34.34;nan;99139.06;5023463;28;20464;-79
2023/06/12 07:12:12;;;;;;;5.00;4.57;;;;;;;34.53;nan;99125.78;5020477;28;20219;-80
2023/06/12 07:14:38;;;;;;;4.83;4.53;;;;;;;34.63;nan;99122.34;5022301;28;20540;-79
2023/06/12 07:17:04;;;;;;;6.37;4.10;;;;;;;34.58;nan;99120.41;5021364;28;20863;-80
2023/06/12 07:19:30;;;;;;;5.13;4.30;;;;;;;34.39;nan;99121.94;5020828;28;20468;-80
2023/06/12 07:21:56;;;;;;;5.00;4.50;;;;;;;34.03;nan;99121.72;5020761;28;20215;-80
2023/06/12 07:24:21;;;;;;;6.30;4.17;;;;;;;33.54;nan;99116.47;5022545;28;20592;-80
2023/06/12 07:26:47;;;;;;;4.10;3.70;;;;;;;33.33;nan;99122.78;5008564;28;20725;-80
2023/06/12 07:29:13;;;;;;;4.03;3.73;;;;;;;33.25;nan;99115.91;5002830;28;20244;-80
2023/06/12 07:31:38;;;;;;;3.83;3.50;;;;;;;33.29;nan;99119.75;5001693;28;20503;-81
2023/06/12 07:34:04;;;;;;;4.10;3.70;;;;;;;33.50;nan;99112.59;4997735;28;20219;-79
2023/06/12 07:36:35;;;;;;;4.40;4.00;;;;;;;33.42;nan;99113.88;4974624;28;20551;-79
2023/06/12 07:39:01;;;;;;;4.30;3.90;;;;;;;33.46;nan;99116.94;4992041;28;20413;-82
2023/06/12 07:41:27;;;;;;;5.70;4.03;;;;;;;33.37;nan;99115.75;4976411;28;20471;-80
2023/06/12 07:43:53;;;;;;;4.57;4.07;;;;;;;33.13;nan;99113.34;4991925;28;20462;-79
2023/06/12 07:46:18;;;;;;;6.40;3.67;;;;;;;33.14;nan;99115.00;4974814;28;20217;-82
2023/06/12 07:48:44;;;;;;;4.63;3.80;;;;;;;33.27;nan;99111.84;4975185;28;20256;-82
2023/06/12 07:51:10;;;;;;;4.17;3.77;;;;;;;33.14;nan;99104.13;4973321;28;20806;-80
2023/06/12 07:53:35;;;;;;;4.00;3.70;;;;;;;33.11;nan;99106.50;4976632;28;20228;-80
2023/06/12 07:56:01;;;;;;;4.80;3.83;;;;;;;33.22;nan;99106.38;4976807;28;20619;-80
2023/06/12 07:58:28;;;;;;;4.53;3.90;;;;;;;33.21;nan;99101.97;4975710;28;20249;-82
2023/06/12 08:00:57;;;;;;;3.50;3.10;;;;;;;33.12;nan;99106.25;4977141;28;20981;-82
2023/06/12 08:03:26;;;;;;;4.60;4.07;;;;;;;32.83;nan;99100.22;4975497;28;20516;-79
2023/06/12 08:05:52;;;;;;;4.28;3.88;;;;;;;32.67;nan;99098.41;4993077;28;20456;-80
2023/06/12 08:08:18;;;;;;;5.07;4.57;;;;;;;32.25;nan;99097.06;4974999;28;20220;-81
2023/06/12 08:10:43;;;;;;;4.30;4.00;;;;;;;31.91;nan;99088.94;4977862;28;20461;-81
2023/06/12 08:13:10;;;;;;;7.37;4.00;;;;;;;31.65;nan;99100.50;4974243;28;20640;-79
2023/06/12 08:15:36;;;;;;;5.00;4.50;;;;;;;31.42;nan;99102.31;4994398;28;20480;-80
2023/06/12 08:18:04;;;;;;;4.30;3.90;;;;;;;31.35;nan;99101.63;4976699;28;20724;-79
2023/06/12 08:20:31;;;;;;;4.60;4.20;;;;;;;31.28;nan;99096.38;4976891;28;20468;-79
2023/06/12 08:22:56;;;;;;;3.70;3.40;;;;;;;31.29;nan;99092.56;4976415;28;20211;-81
2023/06/12 08:25:23;;;;;;;4.33;3.97;;;;;;;31.31;nan;99081.50;4975597;28;20873;-79
2023/06/12 08:27:49;;;;;;;3.87;3.57;;;;;;;31.44;nan;99086.63;4994958;28;20880;-80
2023/06/12 08:30:14;;;;;;;5.20;4.73;;;;;;;31.47;nan;99085.31;4976672;28;20236;-79
2023/06/12 08:32:40;;;;;;;4.87;4.47;;;;;;;31.36;nan;99087.00;4972979;28;20581;-81
2023/06/12 08:35:06;;;;;;;4.17;3.87;;;;;;;31.13;nan;99084.41;4995256;28;20224;-81
2023/06/12 08:37:33;;;;;;;3.97;3.57;;;;;;;30.88;nan;99085.63;4975847;28;20916;-79
2023/06/12 08:39:58;;;;;;;4.47;4.07;;;;;;;30.65;nan;99091.94;4975284;28;20461;-79
2023/06/12 08:42:24;;;;;;;5.30;4.80;;;;;;;30.12;nan;99082.13;4977586;28;20515;-81
2023/06/12 08:45:04;;;;;;;4.70;4.27;;;;;;;30.04;nan;99086.03;4976237;28;20202;-79
2023/06/12 08:47:34;;;;;;;4.87;4.47;;;;;;;30.02;nan;99084.63;4993333;28;20507;-79
2023/06/12 08:50:00;;;;;;;4.70;4.20;;;;;;;30.11;nan;99075.91;4991609;28;20478;-81
2023/06/12 08:52:27;;;;;;;4.00;3.60;;;;;;;30.44;nan;99069.03;4993485;28;20539;-81
2023/06/12 08:54:52;;;;;;;4.37;3.97;;;;;;;30.69;nan;99067.88;4994752;28;20220;-80
2023/06/12 08:57:19;;;;;;;4.90;4.43;;;;;;;30.85;nan;99069.84;4992916;28;22147;-80
2023/06/12 08:59:45;;;;;;;5.80;4.20;;;;;;;30.69;nan;99076.00;4993388;28;20778;-80
2023/06/12 09:02:11;;;;;;;4.20;3.80;;;;;;;30.55;nan;99070.88;4992488;28;20768;-79
2023/06/12 09:05:12;;;;;;;4.20;3.65;;;;;;;30.67;nan;99054.53;4991791;28;20091;-78
2023/06/12 09:07:40;;;;;;;6.93;3.47;;;;;;;30.91;nan;99059.91;4982870;28;20219;-79
2023/06/12 09:10:06;;;;;;;4.97;4.47;;;;;;;30.68;nan;99055.34;4992336;28;21171;-80
2023/06/12 09:12:31;;;;;;;3.20;2.90;;;;;;;30.45;nan;99067.94;4992776;28;20459;-79
2023/06/12 09:15:00;;;;;;;3.90;3.60;;;;;;;30.48;nan;99061.22;4990126;28;20442;-79
2023/06/12 09:17:30;;;;;;;3.87;3.47;;;;;;;30.52;nan;99068.63;4992193;28;20216;-79
2023/06/12 09:19:56;;;;;;;5.83;3.77;;;;;;;30.65;nan;99054.81;4992039;28;20516;-79
2023/06/12 09:22:21;;;;;;;5.57;3.73;;;;;;;30.69;nan;99057.03;4989698;28;20479;-79
2023/06/12 09:24:48;;;;;;;3.93;3.53;;;;;;;30.85;nan;99064.41;4992163;28;20197;-81
2023/06/12 09:27:14;;;;;;;3.70;3.40;;;;;;;31.00;nan;99058.41;5008422;28;20253;-79
2023/06/12 09:29:40;;;;;;;3.93;3.20;;;;;;;31.20;nan;99055.25;5009330;28;20516;-81
2023/06/12 09:32:07;;;;;;;4.00;3.60;;;;;;;31.47;nan;99058.97;5011305;28;20463;-79
2023/06/12 09:34:34;;;;;;;4.90;4.00;;;;;;;31.50;nan;99061.19;5010414;28;20466;-80
2023/06/12 09:37:00;;;;;;;4.47;3.60;;;;;;;31.53;nan;99054.44;5010116;28;20668;-82
2023/06/12 09:39:29;;;;;;;3.80;3.40;;;;;;;31.68;nan;99045.72;5008672;28;20839;-83
2023/06/12 09:41:56;;;;;;;4.60;4.20;;;;;;;31.70;nan;99049.00;5009952;28;20565;-79
2023/06/12 09:44:28;;;;;;;4.00;3.60;;;;;;;31.56;nan;99058.56;5009692;28;21326;-80
2023/06/12 09:46:58;;;;;;;4.13;3.63;;;;;;;31.40;nan;99062.94;5010010;28;20461;-79
2023/06/12 09:49:24;;;;;;;4.67;3.30;;;;;;;31.24;nan;99042.81;5009454;28;21038;-79
2023/06/12 09:51:51;;;;;;;3.83;3.53;;;;;;;31.24;nan;99048.25;5008941;28;20469;-80
2023/06/12 09:54:18;;;;;;;4.70;4.20;;;;;;;31.19;nan;99040.88;5011275;28;20620;-79
2023/06/12 09:56:48;;;;;;;5.43;3.70;;;;;;;31.15;nan;99045.13;5009329;28;20490;-80
2023/06/12 09:59:18;;;;;;;3.67;3.37;;;;;;;31.34;nan;99044.91;5009445;28;20459;-81
2023/06/12 10:01:51;;;;;;;4.40;4.00;;;;;;;31.50;nan;99053.06;5010576;28;20473;-82
2023/06/12 10:04:51;;;;;;;6.53;3.90;;;;;;;31.73;nan;99043.06;5010539;28;20548;-81
2023/06/12 10:07:26;;;;;;;4.67;4.27;;;;;;;31.80;nan;99043.72;4983500;28;20479;-80
2023/06/12 10:09:53;;;;;;;4.90;3.50;;;;;;;31.58;nan;99045.56;5009901;28;20450;-78
2023/06/12 10:12:19;;;;;;;4.40;4.00;;;;;;;31.60;nan;99032.56;5009605;28;20488;-81
2023/06/12 10:14:45;;;;;;;4.07;3.77;;;;;;;31.75;nan;99030.06;5009344;28;20455;-80
2023/06/12 10:17:10;;;;;;;4.57;3.87;;;;;;;31.97;nan;99035.53;5006124;28;20517;-79
2023/06/12 10:19:47;;;;;;;4.73;3.50;;;;;;;32.04;nan;99029.94;5006207;28;20225;-83
2023/06/12 10:22:13;;;;;;;3.93;3.63;;;;;;;32.07;nan;99026.72;5010652;28;20770;-81
2023/06/12 10:24:39;;;;;;;4.37;4.07;;;;;;;31.94;nan;99017.84;5011334;28;20898;-79
2023/06/12 10:27:06;;;;;;;7.80;4.40;;;;;;;31.98;nan;99023.63;4992549;28;20467;-81
2023/06/12 10:29:36;;;;;;;4.00;3.70;;;;;;;31.87;nan;99027.25;4993467;28;20500;-80
2023/06/12 10:32:06;;;;;;;4.40;3.93;;;;;;;31.90;nan;99027.56;4992328;28;20576;-80
2023/06/12 10:34:41;;;;;;;4.03;3.63;;;;;;;31.94;nan;99023.28;4992701;28;20471;-80
2023/06/12 10:37:27;;;;;;;4.50;4.07;;;;;;;32.02;nan;99018.50;4993683;28;20512;-80
2023/06/12 10:40:09;;;;;;;3.87;3.57;;;;;;;32.14;nan;99016.50;4991568;28;21003;-79
2023/06/12 10:42:47;;;;;;;4.63;4.07;;;;;;;31.93;nan;99008.06;4993029;28;20562;-82
2023/06/12 10:45:27;;;;;;;4.80;4.40;;;;;;;31.88;nan;99010.69;4994460;28;20560;-81
2023/06/12 10:48:02;;;;;;;5.47;4.40;;;;;;;31.91;nan;99012.91;4992618;28;20499;-81
2023/06/12 10:50:31;;;;;;;4.10;3.70;;;;;;;32.05;nan;99009.84;4994207;28;20454;-80
2023/06/12 10:53:00;;;;;;;5.23;4.73;;;;;;;31.99;nan;99006.25;4993378;28;20486;-81
2023/06/12 10:55:29;;;;;;;5.80;5.30;;;;;;;32.02;nan;98994.06;4992000;28;20486;-80
2023/06/12 10:58:06;;;;;;;4.90;4.50;;;;;;;32.12;nan;98989.56;4994045;28;20486;-82
2023/06/12 11:00:37;;;;;;;4.87;4.47;;;;;;;32.28;nan;99000.63;4992347;28;20500;-80
2023/06/12 11:03:11;;;;;;;4.87;3.80;;;;;;;32.40;nan;98990.41;4993350;28;20499;-80
2023/06/12 11:05:38;;;;;;;4.17;3.80;;;;;;;32.43;nan;98986.38;4994019;28;20535;-81
2023/06/12 11:08:06;;;;;;;5.43;4.93;;;;;;;32.29;nan;98989.47;4974479;28;20481;-81
2023/06/12 11:10:33;;;;;;;5.03;4.63;;;;;;;32.25;nan;98980.22;4996051;28;21091;-80
2023/06/12 11:12:59;;;;;;;6.83;4.47;;;;;;;32.07;nan;98978.63;4995396;28;20988;-81
2023/06/12 11:15:25;;;;;;;6.17;5.60;;;;;;;32.06;nan;98979.72;4998915;28;21372;-81
2023/06/12 11:17:51;;;;;;;5.70;4.60;;;;;;;32.02;nan;98975.03;4997992;28;20558;-82
2023/06/12 11:20:19;;;;;;;4.30;3.90;;;;;;;32.06;nan;98970.75;5003595;28;20225;-80
2023/06/12 11:22:47;;;;;;;6.37;5.60;;;;;;;32.15;nan;98969.22;5008350;28;20469;-80
2023/06/12 11:25:14;;;;;;;4.80;4.40;;;;;;;32.26;nan;98975.59;5006073;28;20476;-80
2023/06/12 11:27:39;;;;;;;4.40;4.00;;;;;;;32.28;nan;98971.53;4995620;28;20882;-80
2023/06/12 11:30:13;;;;;;;5.10;4.50;;;;;;;32.37;nan;98972.72;4994290;28;20903;-80
2023/06/12 11:32:39;;;;;;;4.73;4.33;;;;;;;32.47;nan;98969.31;4994334;28;20220;-80
2023/06/12 11:35:06;;;;;;;5.07;3.93;;;;;;;32.51;nan;98970.44;4995852;28;20864;-80
2023/06/12 11:37:32;;;;;;;5.20;4.10;;;;;;;32.56;nan;98969.69;4993032;28;20479;-80
2023/06/12 11:40:09;;;;;;;4.83;4.43;;;;;;;32.38;nan;98959.97;4994983;28;20472;-80
2023/06/12 11:42:36;;;;;;;8.10;4.77;;;;;;;32.12;nan;98953.44;4995308;28;20475;-81
2023/06/12 11:45:06;;;;;;;5.23;4.67;;;;;;;31.96;nan;98963.28;4994123;28;20808;-81
2023/06/12 11:47:33;;;;;;;4.50;4.10;;;;;;;32.03;nan;98963.94;4995736;28;21059;-79
2023/06/12 11:49:59;;;;;;;5.13;4.57;;;;;;;32.05;nan;98953.59;4994386;28;20577;-81
2023/06/12 11:52:25;;;;;;;5.10;3.87;;;;;;;31.89;nan;98951.75;4994584;28;20481;-80
2023/06/12 11:54:58;;;;;;;5.87;5.27;;;;;;;31.86;nan;98949.53;4993606;28;20253;-80